sensor_id;sensor_type;location;lat;lon;timestamp;temperature;humidity
2955;DHT22;1487;51.470;6.938;2023-02-13T00:01:51;8.80;99.90
2955;DHT22;1487;51.470;6.938;2023-02-13T00:04:18;8.80;99.90
2955;DHT22;1487;51.470;6.938;2023-02-13T00:06:47;8.80;99.90
2955;DHT22;1487;51.470;6.938;2023-02-13T00:09:14;8.80;99.90
2955;DHT22;1487;51.470;6.938;2023-02-13T00:11:41;8.80;99.90
2955;DHT22;1487;51.470;6.938;2023-02-13T00:14:07;8.80;99.90
2955;DHT22;1487;51.470;6.938;2023-02-13T00:16:35;8.80;99.90
2955;DHT22;1487;51.470;6.938;2023-02-13T00:19:02;8.70;99.90
2955;DHT22;1487;51.470;6.938;2023-02-13T00:21:29;8.70;99.90
2955;DHT22;1487;51.470;6.938;2023-02-13T00:23:57;8.80;99.90
2955;DHT22;1487;51.470;6.938;2023-02-13T00:26:24;8.80;99.90
2955;DHT22;1487;51.470;6.938;2023-02-13T00:28:51;8.70;99.90
2955;DHT22;1487;51.470;6.938;2023-02-13T00:31:20;8.70;99.90
2955;DHT22;1487;51.470;6.938;2023-02-13T00:33:47;8.80;99.90
2955;DHT22;1487;51.470;6.938;2023-02-13T00:36:17;8.80;99.90
2955;DHT22;1487;51.470;6.938;2023-02-13T00:38:45;8.80;99.90
2955;DHT22;1487;51.470;6.938;2023-02-13T00:41:14;8.80;99.90
2955;DHT22;1487;51.470;6.938;2023-02-13T00:43:42;8.70;99.90
2955;DHT22;1487;51.470;6.938;2023-02-13T00:46:09;8.80;99.90
2955;DHT22;1487;51.470;6.938;2023-02-13T00:48:37;8.70;99.90
2955;DHT22;1487;51.470;6.938;2023-02-13T00:51:05;8.70;99.90
2955;DHT22;1487;51.470;6.938;2023-02-13T00:53:32;8.70;99.90
2955;DHT22;1487;51.470;6.938;2023-02-13T00:55:59;8.80;99.90
2955;DHT22;1487;51.470;6.938;2023-02-13T00:58:28;8.80;99.90
2955;DHT22;1487;51.470;6.938;2023-02-13T01:00:55;8.70;99.90
2955;DHT22;1487;51.470;6.938;2023-02-13T01:03:22;8.70;99.90
2955;DHT22;1487;51.470;6.938;2023-02-13T01:05:49;8.70;99.90
2955;DHT22;1487;51.470;6.938;2023-02-13T01:08:17;8.70;99.90
2955;DHT22;1487;51.470;6.938;2023-02-13T01:10:45;8.60;99.90
2955;DHT22;1487;51.470;6.938;2023-02-13T01:13:13;8.60;99.90
2955;DHT22;1487;51.470;6.938;2023-02-13T01:15:41;8.70;99.90
2955;DHT22;1487;51.470;6.938;2023-02-13T01:18:09;8.70;99.90
2955;DHT22;1487;51.470;6.938;2023-02-13T01:20:37;8.70;99.90
2955;DHT22;1487;51.470;6.938;2023-02-13T01:23:04;8.70;99.90
2955;DHT22;1487;51.470;6.938;2023-02-13T01:25:31;8.70;99.90
2955;DHT22;1487;51.470;6.938;2023-02-13T01:27:58;8.80;99.90
2955;DHT22;1487;51.470;6.938;2023-02-13T01:30:25;8.80;99.90
2955;DHT22;1487;51.470;6.938;2023-02-13T01:32:53;8.80;99.90
2955;DHT22;1487;51.470;6.938;2023-02-13T01:35:20;8.80;99.90
2955;DHT22;1487;51.470;6.938;2023-02-13T01:37:46;8.70;99.90
2955;DHT22;1487;51.470;6.938;2023-02-13T01:40:13;8.70;99.90
2955;DHT22;1487;51.470;6.938;2023-02-13T01:42:42;8.70;99.90
2955;DHT22;1487;51.470;6.938;2023-02-13T01:45:21;8.70;99.90
2955;DHT22;1487;51.470;6.938;2023-02-13T01:47:51;8.70;99.90
2955;DHT22;1487;51.470;6.938;2023-02-13T01:50:23;8.70;99.90
2955;DHT22;1487;51.470;6.938;2023-02-13T01:52:54;8.70;99.90
2955;DHT22;1487;51.470;6.938;2023-02-13T01:55:25;8.70;99.90
2955;DHT22;1487;51.470;6.938;2023-02-13T01:57:55;8.70;99.90
2955;DHT22;1487;51.470;6.938;2023-02-13T02:00:24;8.70;99.90
2955;DHT22;1487;51.470;6.938;2023-02-13T02:02:53;8.70;99.90
2955;DHT22;1487;51.470;6.938;2023-02-13T02:05:24;8.60;99.90
2955;DHT22;1487;51.470;6.938;2023-02-13T02:07:52;8.60;99.90
2955;DHT22;1487;51.470;6.938;2023-02-13T02:10:20;8.60;99.90
2955;DHT22;1487;51.470;6.938;2023-02-13T02:12:51;8.60;99.90
2955;DHT22;1487;51.470;6.938;2023-02-13T02:15:20;8.60;99.90
2955;DHT22;1487;51.470;6.938;2023-02-13T02:17:47;8.60;99.90
2955;DHT22;1487;51.470;6.938;2023-02-13T02:20:25;8.60;99.90
2955;DHT22;1487;51.470;6.938;2023-02-13T02:23:22;8.60;99.90
2955;DHT22;1487;51.470;6.938;2023-02-13T02:32:29;8.50;99.90
2955;DHT22;1487;51.470;6.938;2023-02-13T02:35:08;8.50;99.90
2955;DHT22;1487;51.470;6.938;2023-02-13T02:38:02;8.50;99.90
2955;DHT22;1487;51.470;6.938;2023-02-13T02:40:37;8.50;99.90
2955;DHT22;1487;51.470;6.938;2023-02-13T02:43:19;8.50;99.90
2955;DHT22;1487;51.470;6.938;2023-02-13T02:45:53;8.50;99.90
2955;DHT22;1487;51.470;6.938;2023-02-13T02:48:27;8.50;99.90
2955;DHT22;1487;51.470;6.938;2023-02-13T02:51:19;8.50;99.90
2955;DHT22;1487;51.470;6.938;2023-02-13T02:53:52;8.50;99.90
2955;DHT22;1487;51.470;6.938;2023-02-13T02:56:25;8.50;99.90
2955;DHT22;1487;51.470;6.938;2023-02-13T02:58:58;8.50;99.90
2955;DHT22;1487;51.470;6.938;2023-02-13T03:01:44;8.40;99.90
2955;DHT22;1487;51.470;6.938;2023-02-13T03:04:33;8.40;99.90
2955;DHT22;1487;51.470;6.938;2023-02-13T03:07:19;8.40;99.90
2955;DHT22;1487;51.470;6.938;2023-02-13T03:09:50;8.40;99.90
2955;DHT22;1487;51.470;6.938;2023-02-13T03:12:38;8.40;99.90
2955;DHT22;1487;51.470;6.938;2023-02-13T03:15:25;8.30;99.90
2955;DHT22;1487;51.470;6.938;2023-02-13T03:17:52;8.30;99.90
2955;DHT22;1487;51.470;6.938;2023-02-13T03:20:45;8.30;99.90
2955;DHT22;1487;51.470;6.938;2023-02-13T03:23:40;8.30;99.90
2955;DHT22;1487;51.470;6.938;2023-02-13T03:26:23;8.30;99.90
2955;DHT22;1487;51.470;6.938;2023-02-13T03:29:07;8.20;99.90
2955;DHT22;1487;51.470;6.938;2023-02-13T03:31:57;8.20;99.90
2955;DHT22;1487;51.470;6.938;2023-02-13T03:34:29;8.20;99.90
2955;DHT22;1487;51.470;6.938;2023-02-13T03:37:26;8.20;99.90
2955;DHT22;1487;51.470;6.938;2023-02-13T03:40:15;8.10;99.90
2955;DHT22;1487;51.470;6.938;2023-02-13T03:42:47;8.10;99.90
2955;DHT22;1487;51.470;6.938;2023-02-13T03:45:21;8.10;99.90
2955;DHT22;1487;51.470;6.938;2023-02-13T03:48:07;8.00;99.90
2955;DHT22;1487;51.470;6.938;2023-02-13T03:50:56;8.00;99.90
2955;DHT22;1487;51.470;6.938;2023-02-13T03:53:27;8.00;99.90
2955;DHT22;1487;51.470;6.938;2023-02-13T03:55:57;8.00;99.90
2955;DHT22;1487;51.470;6.938;2023-02-13T03:58:45;8.00;99.90
2955;DHT22;1487;51.470;6.938;2023-02-13T04:01:33;8.00;99.90
2955;DHT22;1487;51.470;6.938;2023-02-13T04:04:04;8.00;99.90
2955;DHT22;1487;51.470;6.938;2023-02-13T04:06:36;8.00;99.90
2955;DHT22;1487;51.470;6.938;2023-02-13T04:09:05;8.00;99.90
2955;DHT22;1487;51.470;6.938;2023-02-13T04:11:35;7.90;99.90
2955;DHT22;1487;51.470;6.938;2023-02-13T04:14:06;7.90;99.90
2955;DHT22;1487;51.470;6.938;2023-02-13T04:16:35;7.90;99.90
2955;DHT22;1487;51.470;6.938;2023-02-13T04:19:04;7.80;99.90
2955;DHT22;1487;51.470;6.938;2023-02-13T04:21:32;7.80;99.90
2955;DHT22;1487;51.470;6.938;2023-02-13T04:23:59;7.80;99.90
2955;DHT22;1487;51.470;6.938;2023-02-13T04:26:32;7.80;99.90
2955;DHT22;1487;51.470;6.938;2023-02-13T04:29:00;7.70;99.90
2955;DHT22;1487;51.470;6.938;2023-02-13T04:31:27;7.70;99.90
2955;DHT22;1487;51.470;6.938;2023-02-13T04:33:54;7.70;99.90
2955;DHT22;1487;51.470;6.938;2023-02-13T04:36:21;7.70;99.90
2955;DHT22;1487;51.470;6.938;2023-02-13T04:38:49;7.70;99.90
2955;DHT22;1487;51.470;6.938;2023-02-13T04:41:16;7.70;99.90
2955;DHT22;1487;51.470;6.938;2023-02-13T04:43:44;7.70;99.90
2955;DHT22;1487;51.470;6.938;2023-02-13T04:46:11;7.70;99.90
2955;DHT22;1487;51.470;6.938;2023-02-13T04:48:38;7.70;99.90
2955;DHT22;1487;51.470;6.938;2023-02-13T04:51:05;7.80;99.90
2955;DHT22;1487;51.470;6.938;2023-02-13T04:53:32;7.80;99.90
2955;DHT22;1487;51.470;6.938;2023-02-13T04:55:58;7.70;99.90
2955;DHT22;1487;51.470;6.938;2023-02-13T04:58:25;7.70;99.90
2955;DHT22;1487;51.470;6.938;2023-02-13T05:00:54;7.70;99.90
2955;DHT22;1487;51.470;6.938;2023-02-13T05:03:20;7.70;99.90
2955;DHT22;1487;51.470;6.938;2023-02-13T05:05:48;7.70;99.90
2955;DHT22;1487;51.470;6.938;2023-02-13T05:08:15;7.70;99.90
2955;DHT22;1487;51.470;6.938;2023-02-13T05:10:41;7.70;99.90
2955;DHT22;1487;51.470;6.938;2023-02-13T05:13:08;7.70;99.90
2955;DHT22;1487;51.470;6.938;2023-02-13T05:15:36;7.70;99.90
2955;DHT22;1487;51.470;6.938;2023-02-13T05:18:04;7.70;99.90
2955;DHT22;1487;51.470;6.938;2023-02-13T05:20:31;7.70;99.90
2955;DHT22;1487;51.470;6.938;2023-02-13T05:22:58;7.70;99.90
2955;DHT22;1487;51.470;6.938;2023-02-13T05:25:42;7.70;99.90
2955;DHT22;1487;51.470;6.938;2023-02-13T05:28:09;7.70;99.90
2955;DHT22;1487;51.470;6.938;2023-02-13T05:30:50;7.70;99.90
2955;DHT22;1487;51.470;6.938;2023-02-13T05:33:18;7.60;99.90
2955;DHT22;1487;51.470;6.938;2023-02-13T05:35:45;7.60;99.90
2955;DHT22;1487;51.470;6.938;2023-02-13T05:38:12;7.50;99.90
2955;DHT22;1487;51.470;6.938;2023-02-13T05:40:38;7.60;99.90
2955;DHT22;1487;51.470;6.938;2023-02-13T05:43:05;7.60;99.90
2955;DHT22;1487;51.470;6.938;2023-02-13T05:45:32;7.60;99.90
2955;DHT22;1487;51.470;6.938;2023-02-13T05:47:59;7.60;99.90
2955;DHT22;1487;51.470;6.938;2023-02-13T05:50:27;7.50;99.90
2955;DHT22;1487;51.470;6.938;2023-02-13T05:52:54;7.50;99.90
2955;DHT22;1487;51.470;6.938;2023-02-13T05:55:21;7.50;99.90
2955;DHT22;1487;51.470;6.938;2023-02-13T05:57:48;7.50;99.90
2955;DHT22;1487;51.470;6.938;2023-02-13T06:00:15;7.50;99.90
2955;DHT22;1487;51.470;6.938;2023-02-13T06:02:42;7.40;99.90
2955;DHT22;1487;51.470;6.938;2023-02-13T06:05:09;7.40;99.90
2955;DHT22;1487;51.470;6.938;2023-02-13T06:07:37;7.40;99.90
2955;DHT22;1487;51.470;6.938;2023-02-13T06:10:05;7.40;99.90
2955;DHT22;1487;51.470;6.938;2023-02-13T06:12:32;7.40;99.90
2955;DHT22;1487;51.470;6.938;2023-02-13T06:14:59;7.30;99.90
2955;DHT22;1487;51.470;6.938;2023-02-13T06:17:26;7.20;99.90
2955;DHT22;1487;51.470;6.938;2023-02-13T06:19:52;7.20;99.90
2955;DHT22;1487;51.470;6.938;2023-02-13T06:22:19;7.10;99.90
2955;DHT22;1487;51.470;6.938;2023-02-13T06:24:47;7.00;99.90
2955;DHT22;1487;51.470;6.938;2023-02-13T06:27:14;7.00;99.90
2955;DHT22;1487;51.470;6.938;2023-02-13T06:29:41;6.90;99.90
2955;DHT22;1487;51.470;6.938;2023-02-13T06:32:08;6.80;99.90
2955;DHT22;1487;51.470;6.938;2023-02-13T06:34:35;6.80;99.90
2955;DHT22;1487;51.470;6.938;2023-02-13T06:37:01;6.70;99.90
2955;DHT22;1487;51.470;6.938;2023-02-13T06:39:28;6.60;99.90
2955;DHT22;1487;51.470;6.938;2023-02-13T06:41:56;6.50;99.90
2955;DHT22;1487;51.470;6.938;2023-02-13T06:44:23;6.50;99.90
2955;DHT22;1487;51.470;6.938;2023-02-13T06:46:50;6.40;99.90
2955;DHT22;1487;51.470;6.938;2023-02-13T06:49:17;6.40;99.90
2955;DHT22;1487;51.470;6.938;2023-02-13T06:51:44;6.30;99.90
2955;DHT22;1487;51.470;6.938;2023-02-13T06:54:11;6.20;99.90
2955;DHT22;1487;51.470;6.938;2023-02-13T06:56:37;6.20;99.90
2955;DHT22;1487;51.470;6.938;2023-02-13T06:59:06;6.10;99.90
2955;DHT22;1487;51.470;6.938;2023-02-13T07:01:33;6.10;99.90
2955;DHT22;1487;51.470;6.938;2023-02-13T07:03:59;6.00;99.90
2955;DHT22;1487;51.470;6.938;2023-02-13T07:06:26;6.00;99.90
2955;DHT22;1487;51.470;6.938;2023-02-13T07:08:54;5.90;99.90
2955;DHT22;1487;51.470;6.938;2023-02-13T07:11:22;5.90;99.90
2955;DHT22;1487;51.470;6.938;2023-02-13T07:13:49;5.80;99.90
2955;DHT22;1487;51.470;6.938;2023-02-13T07:16:18;5.80;99.90
2955;DHT22;1487;51.470;6.938;2023-02-13T07:18:45;5.80;99.90
2955;DHT22;1487;51.470;6.938;2023-02-13T07:21:12;5.80;99.90
2955;DHT22;1487;51.470;6.938;2023-02-13T07:23:38;5.80;99.90
2955;DHT22;1487;51.470;6.938;2023-02-13T07:26:06;5.80;99.90
2955;DHT22;1487;51.470;6.938;2023-02-13T07:28:33;5.90;99.90
2955;DHT22;1487;51.470;6.938;2023-02-13T07:31:04;6.00;99.90
2955;DHT22;1487;51.470;6.938;2023-02-13T07:33:33;6.00;99.90
2955;DHT22;1487;51.470;6.938;2023-02-13T07:36:00;6.10;99.90
2955;DHT22;1487;51.470;6.938;2023-02-13T07:38:28;6.90;99.90
2955;DHT22;1487;51.470;6.938;2023-02-13T07:40:57;7.60;99.90
2955;DHT22;1487;51.470;6.938;2023-02-13T07:43:24;8.40;99.90
2955;DHT22;1487;51.470;6.938;2023-02-13T07:45:51;9.10;99.90
2955;DHT22;1487;51.470;6.938;2023-02-13T07:48:20;10.10;99.90
2955;DHT22;1487;51.470;6.938;2023-02-13T07:50:48;11.20;99.90
2955;DHT22;1487;51.470;6.938;2023-02-13T07:53:15;11.90;99.90
2955;DHT22;1487;51.470;6.938;2023-02-13T07:55:42;12.60;99.90
2955;DHT22;1487;51.470;6.938;2023-02-13T07:58:09;13.60;99.90
2955;DHT22;1487;51.470;6.938;2023-02-13T08:00:36;14.70;99.90
2955;DHT22;1487;51.470;6.938;2023-02-13T08:03:03;15.70;99.90
2955;DHT22;1487;51.470;6.938;2023-02-13T08:05:31;16.70;99.90
2955;DHT22;1487;51.470;6.938;2023-02-13T08:07:59;17.40;99.90
2955;DHT22;1487;51.470;6.938;2023-02-13T08:10:26;18.20;99.90
2955;DHT22;1487;51.470;6.938;2023-02-13T08:13:12;19.00;99.90
2955;DHT22;1487;51.470;6.938;2023-02-13T08:15:39;19.70;96.80
2955;DHT22;1487;51.470;6.938;2023-02-13T08:18:09;20.00;92.30
2955;DHT22;1487;51.470;6.938;2023-02-13T08:20:36;19.70;89.70
2955;DHT22;1487;51.470;6.938;2023-02-13T08:23:05;20.00;90.20
2955;DHT22;1487;51.470;6.938;2023-02-13T08:25:32;20.20;87.50
2955;DHT22;1487;51.470;6.938;2023-02-13T08:28:00;20.70;85.60
2955;DHT22;1487;51.470;6.938;2023-02-13T08:30:27;21.20;84.00
2955;DHT22;1487;51.470;6.938;2023-02-13T08:32:54;21.40;81.30
2955;DHT22;1487;51.470;6.938;2023-02-13T08:35:21;22.20;82.70
2955;DHT22;1487;51.470;6.938;2023-02-13T08:37:51;23.00;78.30
2955;DHT22;1487;51.470;6.938;2023-02-13T08:40:19;24.10;75.40
2955;DHT22;1487;51.470;6.938;2023-02-13T08:42:46;24.60;69.80
2955;DHT22;1487;51.470;6.938;2023-02-13T08:45:13;25.10;66.60
2955;DHT22;1487;51.470;6.938;2023-02-13T08:47:40;25.00;64.50
2955;DHT22;1487;51.470;6.938;2023-02-13T08:50:07;25.60;63.60
2955;DHT22;1487;51.470;6.938;2023-02-13T08:52:34;26.30;60.70
2955;DHT22;1487;51.470;6.938;2023-02-13T08:55:01;26.10;60.60
2955;DHT22;1487;51.470;6.938;2023-02-13T08:57:30;26.60;59.40
2955;DHT22;1487;51.470;6.938;2023-02-13T08:59:57;27.10;58.90
2955;DHT22;1487;51.470;6.938;2023-02-13T09:02:24;27.70;57.90
2955;DHT22;1487;51.470;6.938;2023-02-13T09:04:51;28.30;57.00
2955;DHT22;1487;51.470;6.938;2023-02-13T09:07:18;28.70;55.10
2955;DHT22;1487;51.470;6.938;2023-02-13T09:09:45;28.60;54.80
2955;DHT22;1487;51.470;6.938;2023-02-13T09:12:11;28.50;53.20
2955;DHT22;1487;51.470;6.938;2023-02-13T09:14:40;28.40;53.30
2955;DHT22;1487;51.470;6.938;2023-02-13T09:17:07;28.80;54.50
2955;DHT22;1487;51.470;6.938;2023-02-13T09:19:34;29.30;52.60
2955;DHT22;1487;51.470;6.938;2023-02-13T09:22:00;29.20;52.40
2955;DHT22;1487;51.470;6.938;2023-02-13T09:24:27;29.40;52.50
2955;DHT22;1487;51.470;6.938;2023-02-13T09:26:54;29.20;51.10
2955;DHT22;1487;51.470;6.938;2023-02-13T09:29:21;29.50;50.90
2955;DHT22;1487;51.470;6.938;2023-02-13T09:31:49;28.90;50.20
2955;DHT22;1487;51.470;6.938;2023-02-13T09:34:17;29.00;50.80
2955;DHT22;1487;51.470;6.938;2023-02-13T09:36:43;27.30;51.10
2955;DHT22;1487;51.470;6.938;2023-02-13T09:39:10;27.10;52.00
2955;DHT22;1487;51.470;6.938;2023-02-13T09:41:39;27.20;53.40
2955;DHT22;1487;51.470;6.938;2023-02-13T09:44:12;27.10;52.60
2955;DHT22;1487;51.470;6.938;2023-02-13T09:47:02;25.80;52.00
2955;DHT22;1487;51.470;6.938;2023-02-13T09:49:32;24.00;54.00
2955;DHT22;1487;51.470;6.938;2023-02-13T09:52:00;23.20;56.40
2955;DHT22;1487;51.470;6.938;2023-02-13T09:54:28;22.50;58.00
2955;DHT22;1487;51.470;6.938;2023-02-13T09:56:59;22.20;58.80
2955;DHT22;1487;51.470;6.938;2023-02-13T09:59:44;21.80;58.60
2955;DHT22;1487;51.470;6.938;2023-02-13T10:02:31;19.70;58.10
2955;DHT22;1487;51.470;6.938;2023-02-13T10:05:10;18.90;63.20
2955;DHT22;1487;51.470;6.938;2023-02-13T10:07:46;19.00;65.60
2955;DHT22;1487;51.470;6.938;2023-02-13T10:10:21;18.80;65.30
2955;DHT22;1487;51.470;6.938;2023-02-13T10:12:57;18.00;66.70
2955;DHT22;1487;51.470;6.938;2023-02-13T10:15:30;18.00;68.50
2955;DHT22;1487;51.470;6.938;2023-02-13T10:18:05;18.10;68.20
2955;DHT22;1487;51.470;6.938;2023-02-13T10:20:40;17.80;69.00
2955;DHT22;1487;51.470;6.938;2023-02-13T10:23:17;17.50;71.10
2955;DHT22;1487;51.470;6.938;2023-02-13T10:25:49;17.10;71.00
2955;DHT22;1487;51.470;6.938;2023-02-13T10:28:25;17.30;74.20
2955;DHT22;1487;51.470;6.938;2023-02-13T10:30:56;17.60;72.50
2955;DHT22;1487;51.470;6.938;2023-02-13T10:33:29;17.80;72.60
2955;DHT22;1487;51.470;6.938;2023-02-13T10:36:00;18.00;72.40
2955;DHT22;1487;51.470;6.938;2023-02-13T10:38:30;18.10;71.80
2955;DHT22;1487;51.470;6.938;2023-02-13T10:41:04;18.10;73.30
2955;DHT22;1487;51.470;6.938;2023-02-13T10:43:38;18.30;73.10
2955;DHT22;1487;51.470;6.938;2023-02-13T10:46:16;18.30;70.80
2955;DHT22;1487;51.470;6.938;2023-02-13T10:49:07;18.20;71.50
2955;DHT22;1487;51.470;6.938;2023-02-13T10:51:41;18.10;70.70
2955;DHT22;1487;51.470;6.938;2023-02-13T10:54:29;18.40;72.20
2955;DHT22;1487;51.470;6.938;2023-02-13T10:57:06;18.90;72.00
2955;DHT22;1487;51.470;6.938;2023-02-13T10:59:47;19.20;68.40
2955;DHT22;1487;51.470;6.938;2023-02-13T11:02:23;19.30;69.90
2955;DHT22;1487;51.470;6.938;2023-02-13T11:04:58;20.00;68.10
2955;DHT22;1487;51.470;6.938;2023-02-13T11:07:26;20.70;67.20
2955;DHT22;1487;51.470;6.938;2023-02-13T11:09:57;21.30;64.90
2955;DHT22;1487;51.470;6.938;2023-02-13T11:12:27;21.80;65.60
2955;DHT22;1487;51.470;6.938;2023-02-13T11:14:56;22.50;63.90
2955;DHT22;1487;51.470;6.938;2023-02-13T11:17:25;23.40;63.90
2955;DHT22;1487;51.470;6.938;2023-02-13T11:19:56;23.70;59.50
2955;DHT22;1487;51.470;6.938;2023-02-13T11:22:29;24.00;60.10
2955;DHT22;1487;51.470;6.938;2023-02-13T11:24:59;24.10;57.10
2955;DHT22;1487;51.470;6.938;2023-02-13T11:27:29;23.90;58.50
2955;DHT22;1487;51.470;6.938;2023-02-13T11:29:59;24.40;57.90
2955;DHT22;1487;51.470;6.938;2023-02-13T11:32:28;24.40;58.10
2955;DHT22;1487;51.470;6.938;2023-02-13T11:34:57;23.60;57.10
2955;DHT22;1487;51.470;6.938;2023-02-13T11:37:31;22.90;57.80
2955;DHT22;1487;51.470;6.938;2023-02-13T11:39:59;22.10;58.90
2955;DHT22;1487;51.470;6.938;2023-02-13T11:42:29;21.90;59.60
2955;DHT22;1487;51.470;6.938;2023-02-13T11:44:59;21.90;60.40
2955;DHT22;1487;51.470;6.938;2023-02-13T11:47:32;21.80;61.00
2955;DHT22;1487;51.470;6.938;2023-02-13T11:50:01;21.70;61.10
2955;DHT22;1487;51.470;6.938;2023-02-13T11:52:30;21.50;61.60
2955;DHT22;1487;51.470;6.938;2023-02-13T11:55:00;21.60;62.20
2955;DHT22;1487;51.470;6.938;2023-02-13T11:57:29;21.60;61.40
2955;DHT22;1487;51.470;6.938;2023-02-13T11:59:57;22.00;62.10
2955;DHT22;1487;51.470;6.938;2023-02-13T12:02:26;22.50;60.70
2955;DHT22;1487;51.470;6.938;2023-02-13T12:07:38;23.00;60.10
2955;DHT22;1487;51.470;6.938;2023-02-13T12:10:14;23.30;60.20
2955;DHT22;1487;51.470;6.938;2023-02-13T12:12:46;23.20;58.30
2955;DHT22;1487;51.470;6.938;2023-02-13T12:15:20;22.70;58.40
2955;DHT22;1487;51.470;6.938;2023-02-13T12:17:56;22.30;59.30
2955;DHT22;1487;51.470;6.938;2023-02-13T12:20:26;22.00;59.20
2955;DHT22;1487;51.470;6.938;2023-02-13T12:23:01;21.30;59.70
2955;DHT22;1487;51.470;6.938;2023-02-13T12:25:47;21.00;60.90
2955;DHT22;1487;51.470;6.938;2023-02-13T12:28:24;20.90;62.10
2955;DHT22;1487;51.470;6.938;2023-02-13T12:31:15;20.70;61.70
2955;DHT22;1487;51.470;6.938;2023-02-13T12:37:18;20.00;65.70
2955;DHT22;1487;51.470;6.938;2023-02-13T12:40:06;19.90;65.20
2955;DHT22;1487;51.470;6.938;2023-02-13T12:42:45;19.70;65.10
2955;DHT22;1487;51.470;6.938;2023-02-13T12:45:23;19.50;65.80
2955;DHT22;1487;51.470;6.938;2023-02-13T12:48:13;18.90;64.80
2955;DHT22;1487;51.470;6.938;2023-02-13T12:50:52;18.50;66.30
2955;DHT22;1487;51.470;6.938;2023-02-13T12:53:48;18.40;67.50
2955;DHT22;1487;51.470;6.938;2023-02-13T12:56:30;18.40;69.10
2955;DHT22;1487;51.470;6.938;2023-02-13T12:59:04;18.60;69.70
2955;DHT22;1487;51.470;6.938;2023-02-13T13:04:49;18.10;67.90
2955;DHT22;1487;51.470;6.938;2023-02-13T13:07:44;18.10;70.40
2955;DHT22;1487;51.470;6.938;2023-02-13T13:10:30;18.50;69.20
2955;DHT22;1487;51.470;6.938;2023-02-13T13:13:08;18.80;67.60
2955;DHT22;1487;51.470;6.938;2023-02-13T13:15:42;18.80;67.20
2955;DHT22;1487;51.470;6.938;2023-02-13T13:18:19;18.70;67.10
2955;DHT22;1487;51.470;6.938;2023-02-13T13:20:59;18.70;67.10
2955;DHT22;1487;51.470;6.938;2023-02-13T13:23:31;18.60;67.40
2955;DHT22;1487;51.470;6.938;2023-02-13T13:26:12;18.90;68.30
2955;DHT22;1487;51.470;6.938;2023-02-13T13:28:45;19.20;67.50
2955;DHT22;1487;51.470;6.938;2023-02-13T13:31:13;19.60;67.60
2955;DHT22;1487;51.470;6.938;2023-02-13T13:33:42;19.90;65.90
2955;DHT22;1487;51.470;6.938;2023-02-13T13:36:15;20.30;64.90
2955;DHT22;1487;51.470;6.938;2023-02-13T13:38:51;20.60;64.00
2955;DHT22;1487;51.470;6.938;2023-02-13T13:41:29;21.10;62.80
2955;DHT22;1487;51.470;6.938;2023-02-13T13:44:14;21.50;61.10
2955;DHT22;1487;51.470;6.938;2023-02-13T13:46:52;21.40;60.50
2955;DHT22;1487;51.470;6.938;2023-02-13T13:49:28;22.00;60.60
2955;DHT22;1487;51.470;6.938;2023-02-13T13:52:19;22.50;60.00
2955;DHT22;1487;51.470;6.938;2023-02-13T13:54:49;22.40;58.30
2955;DHT22;1487;51.470;6.938;2023-02-13T13:57:18;21.90;59.30
2955;DHT22;1487;51.470;6.938;2023-02-13T14:02:48;22.20;60.50
2955;DHT22;1487;51.470;6.938;2023-02-13T14:05:24;22.30;59.70
2955;DHT22;1487;51.470;6.938;2023-02-13T14:07:53;22.60;58.80
2955;DHT22;1487;51.470;6.938;2023-02-13T14:10:58;22.80;58.40
2955;DHT22;1487;51.470;6.938;2023-02-13T14:13:31;23.30;58.00
2955;DHT22;1487;51.470;6.938;2023-02-13T14:16:00;23.30;57.30
2955;DHT22;1487;51.470;6.938;2023-02-13T14:18:28;23.70;58.40
2955;DHT22;1487;51.470;6.938;2023-02-13T14:20:57;23.90;56.90
2955;DHT22;1487;51.470;6.938;2023-02-13T14:23:31;23.90;57.30
2955;DHT22;1487;51.470;6.938;2023-02-13T14:26:19;24.00;56.50
2955;DHT22;1487;51.470;6.938;2023-02-13T14:29:14;24.20;56.70
2955;DHT22;1487;51.470;6.938;2023-02-13T14:31:56;24.40;56.20
2955;DHT22;1487;51.470;6.938;2023-02-13T14:34:27;24.50;55.60
2955;DHT22;1487;51.470;6.938;2023-02-13T14:37:06;24.80;56.00
2955;DHT22;1487;51.470;6.938;2023-02-13T14:39:42;24.90;55.40
2955;DHT22;1487;51.470;6.938;2023-02-13T14:42:23;25.10;54.80
2955;DHT22;1487;51.470;6.938;2023-02-13T14:44:53;25.30;55.40
2955;DHT22;1487;51.470;6.938;2023-02-13T14:47:28;25.40;54.30
2955;DHT22;1487;51.470;6.938;2023-02-13T14:49:59;24.70;54.30
2955;DHT22;1487;51.470;6.938;2023-02-13T14:52:31;24.40;54.80
2955;DHT22;1487;51.470;6.938;2023-02-13T14:55:02;24.00;54.70
2955;DHT22;1487;51.470;6.938;2023-02-13T14:57:33;23.60;55.40
2955;DHT22;1487;51.470;6.938;2023-02-13T15:00:06;23.10;55.80
2955;DHT22;1487;51.470;6.938;2023-02-13T15:02:40;22.80;56.80
2955;DHT22;1487;51.470;6.938;2023-02-13T15:05:13;22.70;57.00
2955;DHT22;1487;51.470;6.938;2023-02-13T15:07:45;22.60;56.80
2955;DHT22;1487;51.470;6.938;2023-02-13T15:10:28;22.50;57.30
2955;DHT22;1487;51.470;6.938;2023-02-13T15:13:01;22.10;57.60
2955;DHT22;1487;51.470;6.938;2023-02-13T15:15:31;21.50;58.50
2955;DHT22;1487;51.470;6.938;2023-02-13T15:18:02;21.20;59.00
2955;DHT22;1487;51.470;6.938;2023-02-13T15:20:33;20.80;59.10
2955;DHT22;1487;51.470;6.938;2023-02-13T15:23:00;20.60;59.90
2955;DHT22;1487;51.470;6.938;2023-02-13T15:25:31;20.40;60.50
2955;DHT22;1487;51.470;6.938;2023-02-13T15:28:00;20.20;60.50
2955;DHT22;1487;51.470;6.938;2023-02-13T15:30:29;20.00;61.30
2955;DHT22;1487;51.470;6.938;2023-02-13T15:32:58;19.80;61.60
2955;DHT22;1487;51.470;6.938;2023-02-13T15:35:28;19.40;61.70
2955;DHT22;1487;51.470;6.938;2023-02-13T15:37:55;19.20;62.10
2955;DHT22;1487;51.470;6.938;2023-02-13T15:40:25;19.10;63.20
2955;DHT22;1487;51.470;6.938;2023-02-13T15:42:54;18.80;63.90
2955;DHT22;1487;51.470;6.938;2023-02-13T15:45:24;18.50;65.00
2955;DHT22;1487;51.470;6.938;2023-02-13T15:47:51;18.20;65.90
2955;DHT22;1487;51.470;6.938;2023-02-13T15:50:26;18.00;67.60
2955;DHT22;1487;51.470;6.938;2023-02-13T15:52:54;17.60;68.30
2955;DHT22;1487;51.470;6.938;2023-02-13T15:55:23;17.10;69.40
2955;DHT22;1487;51.470;6.938;2023-02-13T15:57:52;16.70;71.10
2955;DHT22;1487;51.470;6.938;2023-02-13T16:00:23;16.30;73.20
2955;DHT22;1487;51.470;6.938;2023-02-13T16:02:52;15.90;75.30
2955;DHT22;1487;51.470;6.938;2023-02-13T16:05:19;15.60;78.30
2955;DHT22;1487;51.470;6.938;2023-02-13T16:07:48;15.20;82.50
2955;DHT22;1487;51.470;6.938;2023-02-13T16:10:23;15.00;88.90
2955;DHT22;1487;51.470;6.938;2023-02-13T16:12:52;14.60;96.10
2955;DHT22;1487;51.470;6.938;2023-02-13T16:15:21;14.20;99.90
2955;DHT22;1487;51.470;6.938;2023-02-13T16:17:48;13.90;99.90
2955;DHT22;1487;51.470;6.938;2023-02-13T16:20:20;13.70;99.90
2955;DHT22;1487;51.470;6.938;2023-02-13T16:22:51;13.50;99.90
2955;DHT22;1487;51.470;6.938;2023-02-13T16:25:22;13.30;99.90
2955;DHT22;1487;51.470;6.938;2023-02-13T16:27:51;13.10;99.90
2955;DHT22;1487;51.470;6.938;2023-02-13T16:30:26;12.90;99.90
2955;DHT22;1487;51.470;6.938;2023-02-13T16:33:19;12.70;99.90
2955;DHT22;1487;51.470;6.938;2023-02-13T16:35:47;12.60;99.90
2955;DHT22;1487;51.470;6.938;2023-02-13T16:38:30;12.40;99.90
2955;DHT22;1487;51.470;6.938;2023-02-13T16:40:59;12.20;99.90
2955;DHT22;1487;51.470;6.938;2023-02-13T16:43:38;12.10;99.90
2955;DHT22;1487;51.470;6.938;2023-02-13T16:46:18;11.90;99.90
2955;DHT22;1487;51.470;6.938;2023-02-13T16:48:46;11.80;99.90
2955;DHT22;1487;51.470;6.938;2023-02-13T16:51:15;11.70;99.90
2955;DHT22;1487;51.470;6.938;2023-02-13T16:53:44;11.60;99.90
2955;DHT22;1487;51.470;6.938;2023-02-13T16:56:11;11.60;99.90
2955;DHT22;1487;51.470;6.938;2023-02-13T16:58:38;11.60;99.90